CYXP

Pangnirtung Airport

Pangnirtung, Canada
METAR CYXP 160600Z 00000KT 15SM OVC024 M15/M18 A2955 RMK SC8 CALL OUT LAST STFD OBS/NEXT 161700Z SLP013
Observed Flight Rules
Dec-16 @ 06:00 UTC (7 hours ago) Marginal Visual Flight Rules
Visibility Clouds
15 miles
  • Overcast at 2,400' AGL
Temperatures Readings
Current -15°C / 5°F
Dewpoint -18°C / -0°F
Humidity 78%
Altimeter 29.55" Hg
Pressure 1001.3 hPa
Elevation 23
METAR CYXP 160600Z 00000KT 15SM OVC024 M15/M18 A2955 RMK SC8 CALL OUT LAST STFD OBS/NEXT 161700Z SLP013
Observed Flight Rules
Dec-16 @ 06:00 UTC
(7 hours ago)
MVFR
Clouds
  • Overcast at 2,400' AGL
Temperature Dewpoint
-15°C / 5°F -18°C / -0°F
Humidity Altimeter Pressure
78% 29.55" Hg 1001.3 hPa